Time;durP1;ratioP1;P1;durP2;ratioP2;P2;SDS_P1;SDS_P2;PMS_P1;PMS_P2;Temp;Humidity;BMP_temperature;BMP_pressure;BME280_temperature;BME280_humidity;BME280_pressure;Samples;Min_cycle;Max_cycle;Signal;HPM_P1;HPM_P2
2022/10/22 00:01:12;;;;;;;6.07;4.07;;;13.70;99.90;;;;;;5092324;28;20025;-67
2022/10/22 00:03:38;;;;;;;7.25;4.32;;;13.70;99.90;;;;;;5092008;28;20020;-67
2022/10/22 00:06:03;;;;;;;7.43;4.50;;;13.60;99.90;;;;;;5091903;28;20035;-67
2022/10/22 00:08:29;;;;;;;8.35;4.50;;;13.50;99.90;;;;;;5092111;28;20042;-68
2022/10/22 00:10:55;;;;;;;7.82;4.28;;;13.60;99.90;;;;;;5092898;28;20032;-67
2022/10/22 00:13:21;;;;;;;6.88;4.93;;;13.40;99.90;;;;;;5095386;28;20031;-67
2022/10/22 00:15:47;;;;;;;6.65;4.47;;;13.30;99.90;;;;;;5095732;28;20027;-68
2022/10/22 00:18:12;;;;;;;7.30;4.20;;;13.30;99.90;;;;;;5095591;28;20032;-67
2022/10/22 00:20:38;;;;;;;5.28;4.00;;;13.30;99.90;;;;;;5095935;28;20020;-67
2022/10/22 00:23:04;;;;;;;9.32;4.38;;;13.20;99.90;;;;;;5095676;28;20035;-67
2022/10/22 00:25:30;;;;;;;8.80;4.43;;;13.20;99.90;;;;;;5094342;28;20031;-68
2022/10/22 00:27:56;;;;;;;6.43;4.55;;;13.10;99.90;;;;;;5095134;28;20059;-67
2022/10/22 00:30:21;;;;;;;5.63;4.60;;;13.00;99.90;;;;;;5095525;28;20060;-67
2022/10/22 00:32:47;;;;;;;9.15;4.80;;;12.90;99.90;;;;;;5095453;28;20024;-67
2022/10/22 00:35:13;;;;;;;8.93;4.50;;;12.90;99.90;;;;;;5095173;28;20555;-68
2022/10/22 00:37:38;;;;;;;9.65;4.50;;;12.90;99.90;;;;;;5093242;28;20039;-66
2022/10/22 00:40:05;;;;;;;6.90;4.13;;;12.80;99.90;;;;;;5094286;28;20448;-66
2022/10/22 00:42:30;;;;;;;8.60;4.50;;;12.70;99.90;;;;;;5095240;28;20016;-67
2022/10/22 00:45:05;;;;;;;9.35;4.55;;;12.70;99.90;;;;;;5094569;28;20541;-66
2022/10/22 00:47:42;;;;;;;5.95;4.00;;;12.70;99.90;;;;;;5094569;28;20074;-67
2022/10/22 00:50:20;;;;;;;9.95;4.90;;;12.80;99.90;;;;;;5094553;28;20036;-67
2022/10/22 00:52:46;;;;;;;6.78;4.03;;;12.70;99.90;;;;;;5094891;28;20020;-67
2022/10/22 00:55:13;;;;;;;7.15;4.03;;;12.70;99.90;;;;;;5094861;28;20118;-67
2022/10/22 00:57:40;;;;;;;6.75;4.28;;;12.60;99.90;;;;;;5094924;28;20020;-68
2022/10/22 01:00:06;;;;;;;7.78;4.10;;;12.60;99.90;;;;;;5094932;28;20024;-67
2022/10/22 01:02:32;;;;;;;6.13;4.38;;;12.60;99.90;;;;;;5094848;28;20017;-68
2022/10/22 01:04:58;;;;;;;7.57;4.07;;;12.80;99.90;;;;;;5094843;28;20035;-67
2022/10/22 01:07:25;;;;;;;10.45;4.10;;;12.80;99.90;;;;;;5094743;28;20047;-68
2022/10/22 01:10:13;;;;;;;6.80;3.92;;;12.80;99.90;;;;;;5094780;28;20039;-68
2022/10/22 01:12:41;;;;;;;6.07;3.40;;;12.70;99.90;;;;;;5094238;28;20020;-68
2022/10/22 01:15:16;;;;;;;5.60;3.35;;;13.20;99.90;;;;;;5094629;28;20530;-68
2022/10/22 01:17:48;;;;;;;6.32;3.00;;;13.10;99.90;;;;;;5094522;28;20119;-69
2022/10/22 01:20:16;;;;;;;8.68;3.40;;;13.20;99.90;;;;;;5094745;28;20097;-68
2022/10/22 01:23:12;;;;;;;5.47;2.80;;;13.20;99.90;;;;;;5094406;28;20092;-67
2022/10/22 01:25:55;;;;;;;5.22;2.92;;;13.30;99.90;;;;;;5094346;28;20504;-68
2022/10/22 01:28:51;;;;;;;7.13;3.25;;;13.30;99.90;;;;;;5094736;28;20079;-68
2022/10/22 01:31:19;;;;;;;6.40;3.60;;;13.10;99.90;;;;;;5094206;28;20039;-67
2022/10/22 01:33:47;;;;;;;4.97;3.10;;;12.90;99.90;;;;;;5094548;28;20070;-67
2022/10/22 01:36:14;;;;;;;5.78;2.67;;;13.00;99.90;;;;;;5094425;28;20029;-68
2022/10/22 01:38:41;;;;;;;4.68;3.25;;;13.20;99.90;;;;;;5093862;28;20040;-67
2022/10/22 01:41:07;;;;;;;5.35;3.05;;;13.10;99.90;;;;;;5094003;28;20031;-67
2022/10/22 01:43:33;;;;;;;3.60;2.78;;;13.10;99.90;;;;;;5093969;28;20028;-67
2022/10/22 01:46:03;;;;;;;4.65;2.50;;;13.00;99.90;;;;;;5094006;28;20028;-67
2022/10/22 01:48:53;;;;;;;6.43;3.22;;;13.20;99.90;;;;;;5093799;28;20051;-67
2022/10/22 01:51:56;;;;;;;5.95;3.08;;;13.20;99.90;;;;;;5093982;28;20032;-68
2022/10/22 01:54:43;;;;;;;3.70;2.80;;;13.00;99.90;;;;;;5094159;28;20031;-67
2022/10/22 01:57:31;;;;;;;6.90;2.90;;;12.90;99.90;;;;;;5094080;28;20169;-67
2022/10/22 02:00:10;;;;;;;6.93;3.20;;;13.10;99.90;;;;;;5093595;28;20028;-67
2022/10/22 02:02:48;;;;;;;5.55;3.10;;;13.00;99.90;;;;;;5094035;28;20032;-67
2022/10/22 02:05:39;;;;;;;4.35;3.17;;;12.90;99.90;;;;;;5093598;28;20024;-67
2022/10/22 02:08:09;;;;;;;6.28;3.20;;;12.90;99.90;;;;;;5093411;28;20027;-67
2022/10/22 02:10:41;;;;;;;7.25;3.30;;;12.80;99.90;;;;;;5092959;28;20489;-68
2022/10/22 02:13:11;;;;;;;6.50;3.33;;;12.70;99.90;;;;;;5093623;28;20035;-67
2022/10/22 02:15:38;;;;;;;5.18;3.20;;;12.80;99.90;;;;;;5093878;28;20115;-68
2022/10/22 02:18:07;;;;;;;4.57;2.90;;;12.60;99.90;;;;;;5093462;28;20490;-67
2022/10/22 02:20:36;;;;;;;5.47;3.30;;;12.60;99.90;;;;;;5093369;28;20092;-67
2022/10/22 02:23:03;;;;;;;5.55;3.60;;;12.60;99.90;;;;;;5093318;28;20028;-68
2022/10/22 02:25:34;;;;;;;6.20;3.20;;;12.50;99.90;;;;;;5092870;28;20055;-68
2022/10/22 02:28:16;;;;;;;5.43;3.10;;;12.60;99.90;;;;;;5093159;28;20020;-68
2022/10/22 02:30:45;;;;;;;4.70;3.28;;;12.70;99.90;;;;;;5093078;28;20032;-68
2022/10/22 02:33:16;;;;;;;5.57;3.47;;;12.60;99.90;;;;;;5092418;28;20363;-68
2022/10/22 02:35:43;;;;;;;5.38;3.20;;;12.50;99.90;;;;;;5092844;28;20031;-68
2022/10/22 02:38:10;;;;;;;6.53;3.40;;;12.60;99.90;;;;;;5092740;28;20036;-68
2022/10/22 02:40:36;;;;;;;3.78;3.10;;;12.60;99.90;;;;;;5092979;28;20027;-68
2022/10/22 02:43:04;;;;;;;4.35;3.28;;;12.60;99.90;;;;;;5093015;28;20080;-68
2022/10/22 02:45:31;;;;;;;5.35;3.20;;;12.70;99.90;;;;;;5092711;28;20034;-68
2022/10/22 02:47:56;;;;;;;6.63;3.33;;;12.70;99.90;;;;;;5093269;28;20085;-68
2022/10/22 02:50:22;;;;;;;9.73;3.70;;;12.70;99.90;;;;;;5092738;28;20059;-68
2022/10/22 02:52:48;;;;;;;7.22;3.47;;;12.50;99.90;;;;;;5092301;28;20031;-67
2022/10/22 02:55:13;;;;;;;8.07;3.58;;;12.50;99.90;;;;;;5092742;28;20121;-68
2022/10/22 02:57:39;;;;;;;7.57;3.25;;;12.20;99.90;;;;;;5093005;28;20026;-68
2022/10/22 03:00:07;;;;;;;4.38;3.55;;;12.20;99.90;;;;;;5092575;28;20498;-68
2022/10/22 03:02:33;;;;;;;5.00;2.97;;;12.10;99.90;;;;;;5092430;28;20179;-68
2022/10/22 03:04:59;;;;;;;5.57;3.20;;;12.20;99.90;;;;;;5093049;28;20482;-68
2022/10/22 03:07:25;;;;;;;7.47;3.40;;;12.20;99.90;;;;;;5092126;28;20036;-68
2022/10/22 03:09:50;;;;;;;6.38;3.45;;;12.40;99.90;;;;;;5092200;28;20036;-68
2022/10/22 03:12:16;;;;;;;5.68;3.20;;;12.50;99.90;;;;;;5092491;28;20024;-68
2022/10/22 03:14:42;;;;;;;5.85;2.90;;;12.50;99.90;;;;;;5092412;28;20099;-68
2022/10/22 03:17:08;;;;;;;6.93;3.45;;;12.40;99.90;;;;;;5092777;28;20078;-68
2022/10/22 03:19:33;;;;;;;7.63;3.50;;;12.30;99.90;;;;;;5092209;28;20028;-68
2022/10/22 03:22:04;;;;;;;5.60;3.17;;;12.10;99.90;;;;;;5091940;28;20089;-68
2022/10/22 03:24:40;;;;;;;6.28;3.80;;;12.10;99.90;;;;;;5092682;28;20024;-68
2022/10/22 03:27:06;;;;;;;7.10;3.72;;;12.10;99.90;;;;;;5092293;28;20482;-68
2022/10/22 03:29:35;;;;;;;4.97;3.58;;;12.00;99.90;;;;;;5092305;28;20028;-68
2022/10/22 03:32:00;;;;;;;4.22;3.50;;;11.90;99.90;;;;;;5092139;28;20103;-68
2022/10/22 03:34:26;;;;;;;9.15;3.83;;;11.90;99.90;;;;;;5091899;28;20103;-68
2022/10/22 03:36:53;;;;;;;5.15;3.20;;;11.80;99.90;;;;;;5092230;28;20016;-68
2022/10/22 03:39:21;;;;;;;6.32;3.97;;;11.80;99.90;;;;;;5091834;28;20047;-68
2022/10/22 03:41:48;;;;;;;9.48;3.72;;;11.70;99.90;;;;;;5092265;28;20106;-68
2022/10/22 03:44:15;;;;;;;6.55;3.80;;;11.60;99.90;;;;;;5092410;28;20048;-68
2022/10/22 03:46:41;;;;;;;7.43;4.47;;;11.70;99.90;;;;;;5096162;28;20099;-68
2022/10/22 03:49:07;;;;;;;6.03;3.83;;;11.60;99.90;;;;;;5094881;28;20123;-68
2022/10/22 03:51:33;;;;;;;6.20;4.30;;;11.60;99.90;;;;;;5095859;28;20024;-68
2022/10/22 03:53:59;;;;;;;8.07;3.90;;;11.60;99.90;;;;;;5096110;28;20036;-68
2022/10/22 03:56:25;;;;;;;7.90;4.22;;;11.60;99.90;;;;;;5096421;28;20051;-68
2022/10/22 03:58:54;;;;;;;6.80;5.63;;;11.50;99.90;;;;;;5095986;28;20048;-68
2022/10/22 04:01:20;;;;;;;20.20;15.93;;;11.50;99.90;;;;;;5095952;28;20082;-68
2022/10/22 04:03:45;;;;;;;17.80;10.82;;;11.40;99.90;;;;;;5096087;28;20028;-68
2022/10/22 04:06:12;;;;;;;13.55;9.48;;;11.30;99.90;;;;;;5095883;28;20027;-68
2022/10/22 04:08:39;;;;;;;11.18;8.82;;;11.40;99.90;;;;;;5095650;28;20034;-68
2022/10/22 04:11:05;;;;;;;15.02;8.77;;;11.30;99.90;;;;;;5095889;28;20028;-68
2022/10/22 04:13:31;;;;;;;13.40;7.60;;;11.30;99.90;;;;;;5095799;28;20024;-68
2022/10/22 04:16:17;;;;;;;8.55;6.35;;;11.30;99.90;;;;;;5096162;28;20039;-68
2022/10/22 04:18:45;;;;;;;9.10;5.70;;;11.20;99.90;;;;;;5095666;28;20024;-68
2022/10/22 04:21:12;;;;;;;8.02;5.18;;;11.20;99.90;;;;;;5095707;28;20024;-67
2022/10/22 04:23:38;;;;;;;6.95;4.28;;;11.20;99.90;;;;;;5095736;28;20024;-68
2022/10/22 04:26:06;;;;;;;5.60;4.55;;;11.20;99.90;;;;;;5095572;28;20028;-68
2022/10/22 04:28:33;;;;;;;9.38;6.07;;;11.20;99.90;;;;;;5095267;28;20016;-68
2022/10/22 04:30:59;;;;;;;11.05;4.63;;;11.20;99.90;;;;;;5095528;28;20080;-68
2022/10/22 04:33:25;;;;;;;8.60;4.43;;;11.10;99.90;;;;;;5095316;28;20095;-68
2022/10/22 04:35:50;;;;;;;10.10;3.83;;;11.00;99.90;;;;;;5094722;28;20039;-68
2022/10/22 04:38:16;;;;;;;11.48;4.28;;;11.00;99.90;;;;;;5095495;28;20073;-68
2022/10/22 04:40:42;;;;;;;11.15;4.97;;;10.90;99.90;;;;;;5095283;28;20402;-67
2022/10/22 04:43:08;;;;;;;9.75;4.57;;;11.00;99.90;;;;;;5095360;28;20024;-68
2022/10/22 04:45:34;;;;;;;10.93;5.80;;;10.90;99.90;;;;;;5095113;28;20028;-68
2022/10/22 04:48:00;;;;;;;29.92;21.80;;;10.90;99.90;;;;;;5095214;28;20024;-68
2022/10/22 04:50:26;;;;;;;27.63;20.88;;;10.90;99.90;;;;;;5095118;28;20032;-68
2022/10/22 04:52:52;;;;;;;22.23;17.13;;;10.80;99.90;;;;;;5095031;28;20035;-68
2022/10/22 04:55:17;;;;;;;19.20;16.08;;;10.80;99.90;;;;;;5095174;28;20031;-68
2022/10/22 04:57:43;;;;;;;20.70;15.45;;;10.70;99.90;;;;;;5092952;28;20490;-68
2022/10/22 05:00:10;;;;;;;25.25;12.75;;;10.80;99.90;;;;;;5094750;28;20398;-68
2022/10/22 05:02:35;;;;;;;28.13;23.35;;;10.70;99.90;;;;;;5094931;28;20024;-68
2022/10/22 05:05:01;;;;;;;20.33;13.27;;;10.60;99.90;;;;;;5094517;28;20390;-68
2022/10/22 05:07:27;;;;;;;24.33;20.27;;;10.60;99.90;;;;;;5094803;28;20012;-68
2022/10/22 05:09:53;;;;;;;18.30;14.23;;;10.70;99.90;;;;;;5095107;28;20040;-68
2022/10/22 05:12:19;;;;;;;15.52;11.07;;;10.60;99.90;;;;;;5094822;28;20024;-67
2022/10/22 05:14:45;;;;;;;19.73;14.18;;;10.60;99.90;;;;;;5094715;28;20039;-68
2022/10/22 05:17:11;;;;;;;9.43;8.43;;;10.50;99.90;;;;;;5094960;28;20081;-68
2022/10/22 05:19:37;;;;;;;11.50;7.95;;;10.50;99.90;;;;;;5094141;28;20039;-68
2022/10/22 05:22:04;;;;;;;14.70;10.10;;;10.50;99.90;;;;;;5094427;28;20024;-68
2022/10/22 05:24:31;;;;;;;14.15;11.68;;;10.50;99.90;;;;;;5094458;28;20111;-68
2022/10/22 05:26:59;;;;;;;11.90;8.65;;;10.50;99.90;;;;;;5094482;28;20024;-68
2022/10/22 05:29:25;;;;;;;14.25;7.10;;;10.40;99.90;;;;;;5094219;28;20457;-68
2022/10/22 05:31:52;;;;;;;11.45;7.40;;;10.40;99.90;;;;;;5094056;28;20016;-68
2022/10/22 05:34:18;;;;;;;10.60;7.82;;;10.40;99.90;;;;;;5093702;28;20035;-68
2022/10/22 05:36:44;;;;;;;11.35;7.28;;;10.30;99.90;;;;;;5093446;28;20023;-67
2022/10/22 05:39:10;;;;;;;10.65;7.22;;;10.40;99.90;;;;;;5093577;28;20067;-66
2022/10/22 05:41:36;;;;;;;7.32;5.93;;;10.30;99.90;;;;;;5094186;28;20077;-68
2022/10/22 05:44:02;;;;;;;8.30;6.03;;;10.30;99.90;;;;;;5094072;28;20028;-67
2022/10/22 05:46:32;;;;;;;6.72;4.70;;;10.30;99.90;;;;;;5093605;28;20020;-67
2022/10/22 05:49:00;;;;;;;6.43;4.30;;;10.40;99.90;;;;;;5093240;28;20028;-68
2022/10/22 05:51:28;;;;;;;9.38;4.55;;;10.40;99.90;;;;;;5093728;28;20028;-68
2022/10/22 05:53:58;;;;;;;10.10;4.70;;;10.40;99.90;;;;;;5093657;28;20077;-67
2022/10/22 05:56:25;;;;;;;7.85;3.90;;;10.40;99.90;;;;;;5093720;28;20024;-66
2022/10/22 05:58:51;;;;;;;5.72;4.00;;;10.40;99.90;;;;;;5092916;28;20032;-66
2022/10/22 06:01:22;;;;;;;7.07;4.15;;;10.30;99.90;;;;;;5092501;28;20016;-67
2022/10/22 06:03:51;;;;;;;6.53;3.90;;;10.30;99.90;;;;;;5093511;28;20028;-67
2022/10/22 06:06:31;;;;;;;10.48;4.40;;;10.70;99.90;;;;;;5093536;28;20017;-67
2022/10/22 06:09:01;;;;;;;6.95;5.00;;;10.60;99.90;;;;;;5092196;28;20086;-67
2022/10/22 06:11:26;;;;;;;6.93;4.93;;;10.40;99.90;;;;;;5093373;28;20031;-65
2022/10/22 06:13:52;;;;;;;13.90;4.20;;;10.40;99.90;;;;;;5093551;28;20486;-65
2022/10/22 06:16:18;;;;;;;8.65;5.45;;;10.60;99.90;;;;;;5092935;28;20027;-66
2022/10/22 06:18:44;;;;;;;31.05;27.92;;;10.50;99.90;;;;;;5093000;28;20024;-66
2022/10/22 06:21:12;;;;;;;35.50;31.67;;;10.50;99.90;;;;;;5092536;28;20028;-67
2022/10/22 06:23:39;;;;;;;41.90;37.90;;;10.40;99.90;;;;;;5092683;28;20574;-66
2022/10/22 06:26:05;;;;;;;16.75;11.18;;;10.50;99.90;;;;;;5092795;28;20047;-67
2022/10/22 06:28:31;;;;;;;11.77;7.28;;;10.40;99.90;;;;;;5092987;28;20564;-67
2022/10/22 06:30:58;;;;;;;16.90;11.48;;;10.40;99.90;;;;;;5093136;28;20107;-67
2022/10/22 06:33:25;;;;;;;20.80;17.10;;;10.50;99.90;;;;;;5092717;28;20024;-67
2022/10/22 06:35:51;;;;;;;12.30;10.90;;;10.50;99.90;;;;;;5093300;28;20426;-67
2022/10/22 06:38:16;;;;;;;17.85;11.02;;;10.50;99.90;;;;;;5092834;28;20113;-67
2022/10/22 06:40:43;;;;;;;7.28;5.03;;;10.50;99.90;;;;;;5093014;28;20406;-67
2022/10/22 06:43:10;;;;;;;13.77;5.65;;;10.60;99.90;;;;;;5092934;28;20031;-67
2022/10/22 06:45:36;;;;;;;6.28;3.60;;;10.80;99.90;;;;;;5092692;28;20107;-67
2022/10/22 06:48:02;;;;;;;9.05;4.22;;;11.00;99.90;;;;;;5092918;28;20107;-67
2022/10/22 06:50:28;;;;;;;4.22;2.80;;;11.00;99.90;;;;;;5092759;28;20032;-67
2022/10/22 06:52:53;;;;;;;3.80;2.95;;;11.30;99.90;;;;;;5092823;28;20024;-67
2022/10/22 06:55:19;;;;;;;6.03;2.90;;;11.60;99.90;;;;;;5092747;28;20042;-67
2022/10/22 06:57:45;;;;;;;2.83;2.53;;;11.90;99.90;;;;;;5092787;28;20013;-67
2022/10/22 07:00:11;;;;;;;3.78;3.05;;;12.20;99.90;;;;;;5092181;28;20035;-67
2022/10/22 07:02:37;;;;;;;3.65;2.67;;;12.60;99.90;;;;;;5092519;28;20028;-67
2022/10/22 07:05:02;;;;;;;3.70;2.60;;;13.30;99.90;;;;;;5092672;28;20456;-67
2022/10/22 07:07:28;;;;;;;5.75;2.60;;;13.90;99.90;;;;;;5092533;28;20165;-67
2022/10/22 07:09:54;;;;;;;3.88;2.53;;;14.40;99.90;;;;;;5092283;28;20032;-67
2022/10/22 07:12:19;;;;;;;4.47;3.03;;;15.00;99.90;;;;;;5092467;28;20024;-67
2022/10/22 07:14:45;;;;;;;3.00;2.30;;;15.60;99.90;;;;;;5092231;28;20029;-67
2022/10/22 07:17:11;;;;;;;4.25;2.65;;;16.30;99.90;;;;;;5092603;28;20028;-67
2022/10/22 07:19:36;;;;;;;5.32;2.70;;;16.70;99.90;;;;;;5092008;28;20525;-67
2022/10/22 07:22:02;;;;;;;4.57;2.60;;;17.20;99.90;;;;;;5092284;28;20028;-67
2022/10/22 07:24:28;;;;;;;3.30;2.60;;;17.60;99.90;;;;;;5091384;28;20106;-67
2022/10/22 07:26:54;;;;;;;4.32;2.50;;;18.40;99.90;;;;;;5092423;28;20062;-67
2022/10/22 07:29:19;;;;;;;4.53;2.88;;;18.50;99.90;;;;;;5091762;28;20035;-68
2022/10/22 07:31:45;;;;;;;3.55;2.50;;;19.20;99.90;;;;;;5092439;28;20089;-67
2022/10/22 07:34:11;;;;;;;2.55;2.35;;;19.40;99.90;;;;;;5091928;28;20020;-67
2022/10/22 07:36:36;;;;;;;3.92;2.47;;;19.30;99.90;;;;;;5091137;28;20028;-66
2022/10/22 07:39:03;;;;;;;3.15;2.45;;;19.80;99.90;;;;;;5091946;28;20044;-67
2022/10/22 07:41:29;;;;;;;3.55;1.95;;;21.00;99.90;;;;;;5090757;28;20052;-67
2022/10/22 07:43:56;;;;;;;2.88;2.20;;;21.40;99.90;;;;;;5091712;28;20031;-67
2022/10/22 07:46:23;;;;;;;3.05;2.22;;;22.00;99.90;;;;;;5092151;28;20036;-67
2022/10/22 07:48:49;;;;;;;2.47;2.00;;;20.30;99.90;;;;;;5092453;28;20039;-67
2022/10/22 07:51:16;;;;;;;2.03;1.70;;;22.30;99.90;;;;;;5092035;28;20042;-67
2022/10/22 07:53:42;;;;;;;4.32;2.00;;;22.80;99.90;;;;;;5092078;28;20060;-67
2022/10/22 07:56:08;;;;;;;2.72;1.80;;;22.90;99.90;;;;;;5092486;28;20540;-67
2022/10/22 07:58:34;;;;;;;4.07;2.08;;;23.00;99.90;;;;;;5091397;28;20406;-67
2022/10/22 08:01:01;;;;;;;3.60;1.80;;;23.10;99.90;;;;;;5092128;28;20035;-67
2022/10/22 08:03:28;;;;;;;5.53;1.88;;;23.60;99.90;;;;;;5091955;28;20072;-67
2022/10/22 08:05:54;;;;;;;3.35;2.00;;;23.90;99.90;;;;;;5091913;28;20032;-67
2022/10/22 08:08:20;;;;;;;2.55;1.88;;;23.70;99.90;;;;;;5091728;28;20035;-67
2022/10/22 08:10:47;;;;;;;4.05;1.98;;;24.40;99.90;;;;;;5092348;28;20035;-67
2022/10/22 08:13:14;;;;;;;3.22;1.80;;;25.10;99.90;;;;;;5091354;28;20031;-67
2022/10/22 08:15:41;;;;;;;3.90;1.98;;;25.70;99.90;;;;;;5091767;28;20024;-67
2022/10/22 08:18:07;;;;;;;3.30;1.73;;;26.10;99.90;;;;;;5091646;28;20028;-67
2022/10/22 08:20:33;;;;;;;3.13;1.90;;;23.40;99.90;;;;;;5091770;28;20051;-67
2022/10/22 08:22:59;;;;;;;3.25;2.00;;;24.70;99.90;;;;;;5091693;28;20161;-67
2022/10/22 08:25:25;;;;;;;3.15;1.70;;;25.40;99.90;;;;;;5092113;28;20024;-67
2022/10/22 08:27:51;;;;;;;1.80;1.50;;;25.80;99.90;;;;;;5091432;28;20032;-67
2022/10/22 08:30:17;;;;;;;2.03;1.42;;;26.10;99.90;;;;;;5091606;28;20042;-67
2022/10/22 08:32:43;;;;;;;2.25;1.65;;;26.20;99.90;;;;;;5094380;28;20034;-68
2022/10/22 08:35:09;;;;;;;3.88;1.40;;;26.50;99.90;;;;;;5095138;28;20042;-67
2022/10/22 08:37:35;;;;;;;2.78;1.38;;;26.50;99.90;;;;;;5095357;28;20432;-67
2022/10/22 08:40:01;;;;;;;2.97;1.50;;;26.20;99.90;;;;;;5095016;28;20044;-68
2022/10/22 08:42:57;;;;;;;2.05;1.30;;;26.20;99.90;;;;;;5094890;28;20032;-68
2022/10/22 08:45:26;;;;;;;2.08;1.20;;;25.30;99.90;;;;;;5095046;28;20568;-68
2022/10/22 08:48:03;;;;;;;2.47;1.38;;;24.00;99.90;;;;;;5095144;28;20031;-68
2022/10/22 08:50:49;;;;;;;2.20;1.40;;;24.60;99.90;;;;;;5095449;28;20036;-67
2022/10/22 08:53:24;;;;;;;2.45;1.42;;;23.70;99.90;;;;;;5095112;28;20032;-68
2022/10/22 08:55:53;;;;;;;3.10;1.40;;;25.80;99.90;;;;;;5094537;28;20031;-68
2022/10/22 08:58:19;;;;;;;3.60;1.10;;;26.30;99.90;;;;;;5094899;28;20063;-67
2022/10/22 09:01:11;;;;;;;2.63;1.13;;;26.30;99.90;;;;;;5095195;28;20031;-68
2022/10/22 09:03:51;;;;;;;1.92;1.23;;;24.30;99.90;;;;;;5095270;28;20406;-68
2022/10/22 09:06:24;;;;;;;1.80;1.20;;;22.40;99.90;;;;;;5095282;28;20048;-68
2022/10/22 09:08:51;;;;;;;2.05;1.10;;;22.30;99.90;;;;;;5094489;28;20031;-67
2022/10/22 09:11:38;;;;;;;2.63;1.23;;;23.40;99.90;;;;;;5094152;28;20032;-67
2022/10/22 09:14:05;;;;;;;2.33;0.95;;;24.30;99.90;;;;;;5094654;28;20393;-67
2022/10/22 09:16:43;;;;;;;2.25;1.10;;;25.50;99.90;;;;;;5094547;28;20030;-68
2022/10/22 09:19:23;;;;;;;2.53;1.30;;;27.10;99.90;;;;;;5094845;28;20058;-68
2022/10/22 09:22:07;;;;;;;1.67;1.30;;;29.10;99.90;;;;;;5095045;28;20389;-68
2022/10/22 09:24:36;;;;;;;3.20;1.10;;;;;;;;;;5094419;28;20031;-68
2022/10/22 09:27:12;;;;;;;2.72;1.42;;;29.10;99.90;;;;;;5094459;28;20020;-68
2022/10/22 09:29:38;;;;;;;4.00;1.58;;;29.90;99.90;;;;;;5094320;28;20063;-68
2022/10/22 09:32:03;;;;;;;5.25;2.08;;;29.80;99.90;;;;;;5094351;28;20449;-68
2022/10/22 09:34:29;;;;;;;2.40;1.63;;;29.70;99.90;;;;;;5093980;28;20024;-67
2022/10/22 09:37:05;;;;;;;1.67;1.13;;;30.50;99.90;;;;;;5094229;28;20550;-67
2022/10/22 09:39:32;;;;;;;1.27;1.00;;;29.80;99.90;;;;;;5093928;28;20044;-67
2022/10/22 09:41:58;;;;;;;1.88;1.33;;;27.40;99.90;;;;;;5094169;28;20024;-67
2022/10/22 09:44:24;;;;;;;3.40;1.30;;;27.00;99.90;;;;;;5093905;28;20020;-67
2022/10/22 09:46:50;;;;;;;3.05;1.70;;;27.70;99.90;;;;;;5094497;28;20021;-67
2022/10/22 09:49:19;;;;;;;2.05;1.05;;;28.50;99.90;;;;;;5093807;28;20039;-67
2022/10/22 09:51:55;;;;;;;2.85;1.05;;;28.10;99.90;;;;;;5093898;28;20024;-67
2022/10/22 09:54:37;;;;;;;2.95;1.10;;;29.00;99.90;;;;;;5093375;28;20478;-68
2022/10/22 09:57:13;;;;;;;1.20;1.00;;;28.60;99.90;;;;;;5093923;28;20434;-68
2022/10/22 09:59:41;;;;;;;1.30;1.10;;;27.60;99.90;;;;;;5093783;28;20051;-67
2022/10/22 10:02:16;;;;;;;2.38;1.90;;;29.40;99.90;;;;;;5093716;28;20409;-67
2022/10/22 10:05:02;;;;;;;3.03;1.65;;;30.90;99.90;;;;;;5093702;28;20023;-67
2022/10/22 10:07:33;;;;;;;1.88;1.10;;;31.00;99.90;;;;;;5093354;28;20571;-68
2022/10/22 10:09:59;;;;;;;4.05;1.25;;;30.40;99.90;;;;;;5093090;28;20504;-68
2022/10/22 10:12:34;;;;;;;3.38;1.23;;;29.60;99.90;;;;;;5093981;28;20094;-68
2022/10/22 10:15:11;;;;;;;1.90;0.70;;;29.00;99.90;;;;;;5093604;28;20111;-67
2022/10/22 10:17:48;;;;;;;2.20;0.90;;;27.20;99.90;;;;;;5093096;28;20513;-67
2022/10/22 10:20:14;;;;;;;7.65;4.07;;;27.30;99.90;;;;;;5093312;28;20039;-68
2022/10/22 10:23:32;;;;;;;2.10;1.48;;;26.10;99.90;;;;;;5093005;28;20020;-67
2022/10/22 10:26:13;;;;;;;1.95;0.80;;;26.70;99.90;;;;;;5050991;28;20044;-67
2022/10/22 10:29:09;;;;;;;2.25;0.90;;;26.30;99.90;;;;;;5050610;28;20033;-67
2022/10/22 10:31:46;;;;;;;1.70;0.80;;;25.80;99.90;;;;;;5051008;28;20029;-68
2022/10/22 10:34:32;;;;;;;1.15;0.70;;;25.90;99.90;;;;;;5050479;28;20045;-68
2022/10/22 10:37:16;;;;;;;1.50;0.80;;;24.80;99.90;;;;;;5050399;28;20033;-67
2022/10/22 10:39:42;;;;;;;4.00;0.95;;;25.10;99.90;;;;;;5050386;28;20044;-67
2022/10/22 10:42:13;;;;;;;2.08;0.90;;;25.20;99.90;;;;;;5050871;28;20082;-67
2022/10/22 10:44:52;;;;;;;2.60;1.20;;;25.10;99.90;;;;;;5050582;28;20108;-67
2022/10/22 10:47:18;;;;;;;2.25;0.85;;;25.00;99.90;;;;;;5050441;28;20505;-68
2022/10/22 10:49:43;;;;;;;1.58;0.90;;;25.30;99.90;;;;;;5050502;28;20160;-67
2022/10/22 10:52:27;;;;;;;1.95;0.93;;;26.20;99.90;;;;;;5050252;28;20252;-67
2022/10/22 10:54:53;;;;;;;;;;;26.60;99.90;;;;;;5050256;28;20450;-67
2022/10/22 10:57:44;;;;;;;1.00;0.90;;;26.00;99.90;;;;;;5050245;28;19912;-67
2022/10/22 11:00:14;;;;;;;3.90;1.00;;;24.80;99.90;;;;;;5080466;28;20128;-67
2022/10/22 11:03:07;;;;;;;2.47;0.93;;;24.90;99.90;;;;;;5092994;28;20024;-67
2022/10/22 11:05:49;;;;;;;1.77;0.80;;;25.60;99.90;;;;;;5092903;28;20433;-67
2022/10/22 11:08:25;;;;;;;2.10;0.90;;;25.40;99.90;;;;;;5092514;28;20064;-67
2022/10/22 11:11:14;;;;;;;2.05;0.80;;;25.20;99.90;;;;;;5092411;28;20059;-67
2022/10/22 11:13:52;;;;;;;3.05;0.95;;;24.80;99.90;;;;;;5092409;28;20031;-67
2022/10/22 11:16:36;;;;;;;1.08;0.90;;;25.50;99.90;;;;;;5092507;28;20024;-67
2022/10/22 11:19:25;;;;;;;2.42;1.00;;;25.00;99.90;;;;;;5092494;28;20023;-68
2022/10/22 11:22:04;;;;;;;1.42;1.00;;;25.20;99.90;;;;;;5091981;28;20085;-67
2022/10/22 11:24:51;;;;;;;2.28;0.98;;;24.90;99.90;;;;;;5092767;28;20099;-67
2022/10/22 11:27:39;;;;;;;3.10;0.80;;;24.70;99.90;;;;;;5092331;28;20435;-67
2022/10/22 11:30:15;;;;;;;2.85;0.98;;;24.50;99.90;;;;;;5092217;28;20028;-67
2022/10/22 11:32:46;;;;;;;2.90;0.90;;;24.40;99.90;;;;;;5092691;28;20059;-67
2022/10/22 11:35:15;;;;;;;2.00;0.90;;;24.40;99.90;;;;;;5091389;28;20093;-67
2022/10/22 11:37:44;;;;;;;1.73;0.70;;;24.00;99.90;;;;;;5092271;28;20028;-67
2022/10/22 11:40:21;;;;;;;1.13;0.80;;;24.20;99.90;;;;;;5090649;28;20056;-67
2022/10/22 11:42:52;;;;;;;0.98;0.70;;;24.00;99.90;;;;;;5092154;28;20063;-67
2022/10/22 11:45:24;;;;;;;2.20;0.90;;;24.00;99.90;;;;;;5092009;28;20040;-67
2022/10/22 11:47:55;;;;;;;4.50;0.80;;;24.30;99.90;;;;;;5091944;28;20035;-67
2022/10/22 11:50:47;;;;;;;2.00;0.80;;;24.50;99.90;;;;;;5091499;28;20059;-67
2022/10/22 11:53:12;;;;;;;1.80;0.80;;;24.10;99.90;;;;;;5086373;28;20036;-67
2022/10/22 11:56:04;;;;;;;0.80;0.70;;;24.00;99.90;;;;;;5092060;28;20031;-67
2022/10/22 11:58:42;;;;;;;1.67;0.77;;;24.20;99.90;;;;;;5086023;28;20067;-67
2022/10/22 12:01:08;;;;;;;2.40;1.00;;;24.00;99.90;;;;;;5092012;28;20032;-67
2022/10/22 12:03:33;;;;;;;1.58;0.90;;;24.30;99.90;;;;;;5091817;28;20385;-67
2022/10/22 12:06:11;;;;;;;1.88;1.13;;;24.80;99.90;;;;;;5093215;28;20023;-67
2022/10/22 12:08:52;;;;;;;2.30;0.90;;;25.00;99.90;;;;;;5095728;28;20036;-67
2022/10/22 12:11:59;;;;;;;1.77;1.00;;;25.00;99.90;;;;;;5095833;28;20490;-67
2022/10/22 12:14:31;;;;;;;2.33;1.00;;;24.90;99.90;;;;;;5095763;28;20085;-67
2022/10/22 12:17:14;;;;;;;2.50;0.95;;;25.00;99.90;;;;;;5095888;28;20035;-67
2022/10/22 12:19:53;;;;;;;1.73;0.90;;;25.20;99.90;;;;;;5095453;28;20098;-67
2022/10/22 12:22:22;;;;;;;2.45;0.80;;;25.00;99.90;;;;;;5095771;28;20032;-67
2022/10/22 12:24:53;;;;;;;2.63;0.85;;;25.10;99.90;;;;;;5095625;28;20360;-67
2022/10/22 12:27:35;;;;;;;2.72;0.90;;;25.00;99.90;;;;;;5095370;28;20028;-67
2022/10/22 12:30:03;;;;;;;2.75;0.80;;;25.10;99.90;;;;;;5095490;28;20032;-67
2022/10/22 12:32:37;;;;;;;1.60;0.90;;;25.40;99.90;;;;;;5095644;28;20059;-67
2022/10/22 12:35:07;;;;;;;1.30;0.85;;;25.30;99.90;;;;;;5095140;28;20561;-67
2022/10/22 12:37:37;;;;;;;1.88;0.70;;;25.50;99.90;;;;;;5095261;28;20028;-68
2022/10/22 12:40:24;;;;;;;1.55;0.82;;;25.50;99.90;;;;;;5095179;28;20043;-67
2022/10/22 12:42:54;;;;;;;1.45;0.80;;;25.60;99.90;;;;;;5095329;28;20100;-67
2022/10/22 12:45:20;;;;;;;1.25;0.75;;;25.50;99.90;;;;;;5095287;28;20031;-67
2022/10/22 12:47:49;;;;;;;2.88;0.82;;;25.50;99.90;;;;;;5095202;28;20020;-67
2022/10/22 12:50:21;;;;;;;2.45;1.00;;;25.60;99.90;;;;;;5094452;28;20028;-67
2022/10/22 12:52:48;;;;;;;1.10;0.87;;;25.50;99.90;;;;;;5095034;28;20027;-67
2022/10/22 12:55:21;;;;;;;2.28;0.90;;;25.80;99.90;;;;;;5094980;28;20024;-67
2022/10/22 12:57:48;;;;;;;3.35;1.20;;;25.40;99.90;;;;;;5095307;28;20541;-67
2022/10/22 13:00:31;;;;;;;2.45;1.10;;;25.50;99.90;;;;;;5094343;28;20130;-67
2022/10/22 13:02:59;;;;;;;1.48;0.70;;;25.60;99.90;;;;;;5093961;28;20077;-67